Time;durP1;ratioP1;P1;durP2;ratioP2;P2;SDS_P1;SDS_P2;PMS_P1;PMS_P2;Temp;Humidity;BMP_temperature;BMP_pressure;BME280_temperature;BME280_humidity;BME280_pressure;Samples;Min_cycle;Max_cycle;Signal;HPM_P1;HPM_P2
2022/06/24 00:01:15;;;;;;;;;;;23.30;78.20;;;;;;4991424;28;19918;-62
2022/06/24 00:03:45;;;;;;;;;;;23.20;79.00;;;;;;5035522;28;19925;-61
2022/06/24 00:06:14;;;;;;;;;;;23.20;80.10;;;;;;5054039;28;19909;-61
2022/06/24 00:08:50;;;;;;;;;;;23.20;80.20;;;;;;5055126;28;20031;-62
2022/06/24 00:11:15;;;;;;;;;;;23.10;80.80;;;;;;5051941;28;19913;-60
2022/06/24 00:13:41;;;;;;;;;;;23.10;80.50;;;;;;5052783;28;19970;-60
2022/06/24 00:16:07;;;;;;;;;;;23.10;80.70;;;;;;5051180;28;19921;-60
2022/06/24 00:18:32;;;;;;;;;;;23.00;81.00;;;;;;5051087;28;19925;-63
2022/06/24 00:20:58;;;;;;;;;;;23.00;81.90;;;;;;5055853;28;20392;-61
2022/06/24 00:23:23;;;;;;;;;;;23.00;81.70;;;;;;5053259;28;20019;-61
2022/06/24 00:25:49;;;;;;;;;;;22.90;82.40;;;;;;5055333;28;19913;-61
2022/06/24 00:28:15;;;;;;;;;;;22.90;82.70;;;;;;5054396;28;19966;-62
2022/06/24 00:30:42;;;;;;;;;;;22.90;83.00;;;;;;5048099;28;19950;-62
2022/06/24 00:33:21;;;;;;;;;;;22.90;83.00;;;;;;5057679;28;19921;-62
2022/06/24 00:35:48;;;;;;;;;;;22.80;82.00;;;;;;5053197;28;19913;-61
2022/06/24 00:38:24;;;;;;;;;;;22.80;82.20;;;;;;5052840;28;20050;-61
2022/06/24 00:40:52;;;;;;;;;;;22.70;82.20;;;;;;5053044;28;19917;-61
2022/06/24 00:43:31;;;;;;;;;;;22.70;83.10;;;;;;5052225;28;19996;-61
2022/06/24 00:46:03;;;;;;;;;;;22.70;83.70;;;;;;5052533;28;19933;-61
2022/06/24 00:48:30;;;;;;;;;;;22.70;82.70;;;;;;5050599;28;20083;-61
2022/06/24 00:50:56;;;;;;;;;;;22.60;83.70;;;;;;5052127;28;19909;-62
2022/06/24 00:53:21;;;;;;;;;;;22.60;83.80;;;;;;5051616;28;19928;-61
2022/06/24 00:55:47;;;;;;;;;;;22.60;82.80;;;;;;5049871;28;20349;-61
2022/06/24 00:58:13;;;;;;;;;;;22.60;82.50;;;;;;5056677;28;20003;-60
2022/06/24 01:00:40;;;;;;;;;;;22.50;83.50;;;;;;5051197;28;19920;-62
2022/06/24 01:03:06;;;;;;;;;;;22.50;84.00;;;;;;5055820;28;19924;-61
2022/06/24 01:05:32;;;;;;;;;;;22.50;84.00;;;;;;5049931;28;19920;-63
2022/06/24 01:07:58;;;;;;;;;;;22.50;82.80;;;;;;5051354;28;20008;-62
2022/06/24 01:10:24;;;;;;;;;;;22.40;83.30;;;;;;5057549;28;19919;-62
2022/06/24 01:12:50;;;;;;;;;;;22.40;83.60;;;;;;5052982;28;20236;-62
2022/06/24 01:15:16;;;;;;;;;;;22.40;83.70;;;;;;5055846;28;19909;-62
2022/06/24 01:17:41;;;;;;;;;;;22.40;82.70;;;;;;5052488;28;19916;-63
2022/06/24 01:20:09;;;;;;;;;;;22.30;83.90;;;;;;5050060;28;20387;-63
2022/06/24 01:22:34;;;;;;;;;;;22.30;83.70;;;;;;5051756;28;19913;-62
2022/06/24 01:25:00;;;;;;;;;;;22.30;84.60;;;;;;5052885;28;19913;-62
2022/06/24 01:27:25;;;;;;;;;;;22.30;84.40;;;;;;5051516;28;19923;-61
2022/06/24 01:29:51;;;;;;;;;;;22.30;85.00;;;;;;5051354;28;19915;-61
2022/06/24 01:32:17;;;;;;;;;;;22.20;84.80;;;;;;5051851;28;19917;-61
2022/06/24 01:34:42;;;;;;;;;;;22.20;84.10;;;;;;5054351;28;19923;-60
2022/06/24 01:37:08;;;;;;;;;;;22.30;84.90;;;;;;5030118;28;20286;-61
2022/06/24 01:39:33;;;;;;;;;;;22.20;85.40;;;;;;5051213;28;19920;-62
2022/06/24 01:41:59;;;;;;;;;;;22.20;86.30;;;;;;5051490;28;19913;-61
2022/06/24 01:44:26;;;;;;;;;;;22.20;89.00;;;;;;5053427;28;19913;-61
2022/06/24 01:46:52;;;;;;;;;;;22.20;90.90;;;;;;5051507;28;20386;-59
2022/06/24 01:49:18;;;;;;;;;;;22.10;91.90;;;;;;5053155;28;20015;-61
2022/06/24 01:51:44;;;;;;;;;;;22.10;92.50;;;;;;5049394;28;20011;-60
2022/06/24 01:54:10;;;;;;;;;;;22.00;92.60;;;;;;5054438;28;19995;-61
2022/06/24 01:56:36;;;;;;;;;;;21.90;93.10;;;;;;5053681;28;20331;-60
2022/06/24 01:59:01;;;;;;;;;;;21.90;93.70;;;;;;5045989;28;19913;-60
2022/06/24 02:01:27;;;;;;;;;;;21.80;93.70;;;;;;5050692;28;19935;-60
2022/06/24 02:03:53;;;;;;;;;;;21.70;93.70;;;;;;5051213;28;19928;-60
2022/06/24 02:06:18;;;;;;;;;;;21.70;93.70;;;;;;5035536;28;19959;-59
2022/06/24 02:08:44;;;;;;;;;;;21.60;93.70;;;;;;5053644;28;19909;-59
2022/06/24 02:13:56;;;;;;;;;;;21.50;94.20;;;;;;5051964;28;19931;-61
2022/06/24 02:16:21;;;;;;;;;;;21.40;94.00;;;;;;5056520;28;19921;-61
2022/06/24 02:18:47;;;;;;;;;;;21.30;94.10;;;;;;5050920;28;19966;-61
2022/06/24 02:21:13;;;;;;;;;;;21.30;94.30;;;;;;5054628;28;20372;-62
2022/06/24 02:23:39;;;;;;;;;;;21.30;94.20;;;;;;5049521;28;20530;-61
2022/06/24 02:26:05;;;;;;;;;;;21.20;94.20;;;;;;5033129;28;19996;-62
2022/06/24 02:28:30;;;;;;;;;;;21.20;94.80;;;;;;5050913;28;19937;-60
2022/06/24 02:30:58;;;;;;;;;;;21.10;95.40;;;;;;5051049;28;19912;-61
2022/06/24 02:33:24;;;;;;;;;;;21.10;95.80;;;;;;5054226;28;19916;-61
2022/06/24 02:35:50;;;;;;;;;;;21.00;96.90;;;;;;5052954;28;19917;-61
2022/06/24 02:38:16;;;;;;;;;;;21.00;96.00;;;;;;5054966;28;19913;-60
2022/06/24 02:40:47;;;;;;;;;;;20.90;96.30;;;;;;5054721;28;19963;-61
2022/06/24 02:43:16;;;;;;;;;;;20.80;95.60;;;;;;5055412;28;19917;-59
2022/06/24 02:45:42;;;;;;;;;;;20.80;96.20;;;;;;5052913;28;20267;-61
2022/06/24 02:48:11;;;;;;;;;;;20.70;96.30;;;;;;5054101;28;19970;-59
2022/06/24 02:50:43;;;;;;;;;;;20.70;96.20;;;;;;5035392;28;19908;-59
2022/06/24 02:53:10;;;;;;;;;;;20.60;97.40;;;;;;5053981;28;19956;-58
2022/06/24 02:55:36;;;;;;;;;;;20.60;96.50;;;;;;5052455;28;20749;-60
2022/06/24 02:58:01;;;;;;;;;;;20.50;98.20;;;;;;5056288;28;19913;-62
2022/06/24 03:00:27;;;;;;;;;;;20.50;98.60;;;;;;5054396;28;20366;-60
2022/06/24 03:02:52;;;;;;;;;;;20.50;99.20;;;;;;5034507;28;19935;-62
2022/06/24 03:05:18;;;;;;;;;;;20.50;99.70;;;;;;5034780;28;20383;-62
2022/06/24 03:07:43;;;;;;;;;;;20.50;99.30;;;;;;5033693;28;19928;-61
2022/06/24 03:10:09;;;;;;;;;;;20.50;99.40;;;;;;5033311;28;20446;-60
2022/06/24 03:12:35;;;;;;;;;;;20.40;99.90;;;;;;5033858;28;19957;-60
2022/06/24 03:15:00;;;;;;;;;;;20.40;99.90;;;;;;5037527;28;19909;-60
2022/06/24 03:17:26;;;;;;;;;;;20.40;99.90;;;;;;5033042;28;19924;-60
2022/06/24 03:19:51;;;;;;;;;;;20.40;99.90;;;;;;5034284;28;19971;-60
2022/06/24 03:22:16;;;;;;;;;;;20.40;99.90;;;;;;5036530;28;20070;-60
2022/06/24 03:24:42;;;;;;;;;;;20.30;99.90;;;;;;5033827;28;19913;-60
2022/06/24 03:27:07;;;;;;;;;;;20.30;99.90;;;;;;5033026;28;19917;-60
2022/06/24 03:29:33;;;;;;;;;;;20.30;99.90;;;;;;5033753;28;19913;-60
2022/06/24 03:31:58;;;;;;;;;;;20.30;99.90;;;;;;5032742;28;19913;-60
2022/06/24 03:34:24;;;;;;;;;;;20.30;99.90;;;;;;5038530;28;20529;-60
2022/06/24 03:36:50;;;;;;;;;;;20.30;99.90;;;;;;5033341;28;19960;-60
2022/06/24 03:39:15;;;;;;;;;;;20.30;99.90;;;;;;5035394;28;19916;-61
2022/06/24 03:41:41;;;;;;;;;;;20.20;99.90;;;;;;5032401;28;19971;-59
2022/06/24 03:44:06;;;;;;;;;;;20.20;99.90;;;;;;5033597;28;20015;-60
2022/06/24 03:46:32;;;;;;;;;;;20.20;99.90;;;;;;5033218;28;19912;-61
2022/06/24 03:48:57;;;;;;;;;;;20.10;99.90;;;;;;5032790;28;19920;-61
2022/06/24 03:51:23;;;;;;;;;;;20.10;99.90;;;;;;5031637;28;20012;-61
2022/06/24 03:53:48;;;;;;;;;;;20.00;99.90;;;;;;5035626;28;19921;-62
2022/06/24 03:56:14;;;;;;;;;;;20.00;99.90;;;;;;5030648;28;19957;-60
2022/06/24 03:58:39;;;;;;;;;;;20.00;99.90;;;;;;5031393;28;19917;-60
2022/06/24 04:01:04;;;;;;;;;;;20.00;99.90;;;;;;5030648;28;20343;-61
2022/06/24 04:03:30;;;;;;;;;;;19.90;99.90;;;;;;5043931;28;20438;-62
2022/06/24 04:05:56;;;;;;;;;;;19.90;99.90;;;;;;5052082;28;19916;-61
2022/06/24 04:08:21;;;;;;;;;;;19.80;99.90;;;;;;5052111;28;20704;-61
2022/06/24 04:10:47;;;;;;;;;;;19.80;99.90;;;;;;5057629;28;19916;-61
2022/06/24 04:13:12;;;;;;;;;;;19.80;99.90;;;;;;5050701;28;19924;-61
2022/06/24 04:15:44;;;;;;;;;;;19.80;99.90;;;;;;5032408;28;19912;-61
2022/06/24 04:18:10;;;;;;;;;;;19.70;99.90;;;;;;5053380;28;19912;-60
2022/06/24 04:20:35;;;;;;;;;;;19.70;99.90;;;;;;5050357;28;20362;-61
2022/06/24 04:23:01;;;;;;;;;;;19.70;99.90;;;;;;5052610;28;19917;-61
2022/06/24 04:25:26;;;;;;;;;;;19.60;99.90;;;;;;5050624;28;19909;-61
2022/06/24 04:27:52;;;;;;;;;;;19.70;99.90;;;;;;5050251;28;20011;-59
2022/06/24 04:30:17;;;;;;;;;;;19.60;99.90;;;;;;5033954;28;19916;-59
2022/06/24 04:32:43;;;;;;;;;;;19.60;99.90;;;;;;5050874;28;20377;-60
2022/06/24 04:35:09;;;;;;;;;;;19.70;99.90;;;;;;5033211;28;19916;-61
2022/06/24 04:37:35;;;;;;;;;;;19.70;99.90;;;;;;5052259;28;19924;-61
2022/06/24 04:40:01;;;;;;;;;;;19.80;99.90;;;;;;5052873;28;19916;-61
2022/06/24 04:42:27;;;;;;;;;;;19.80;99.90;;;;;;5044292;28;19912;-61
2022/06/24 04:44:53;;;;;;;;;;;19.80;99.90;;;;;;5052791;28;20409;-60
2022/06/24 04:47:19;;;;;;;;;;;19.80;99.90;;;;;;5050199;28;20345;-59
2022/06/24 04:49:44;;;;;;;;;;;19.90;99.90;;;;;;5050926;28;20442;-60
2022/06/24 04:52:10;;;;;;;;;;;19.90;99.90;;;;;;5055960;28;19909;-61
2022/06/24 04:54:35;;;;;;;;;;;19.90;99.90;;;;;;5057818;28;19975;-60
2022/06/24 04:57:01;;;;;;;;;;;19.90;99.90;;;;;;5057145;28;19916;-60
2022/06/24 04:59:26;;;;;;;;;;;19.90;99.90;;;;;;5051207;28;19915;-59
2022/06/24 05:01:52;;;;;;;;;;;19.90;99.90;;;;;;5051654;28;20294;-60
2022/06/24 05:04:18;;;;;;;;;;;19.90;99.90;;;;;;5057493;28;19921;-61
2022/06/24 05:06:43;;;;;;;;;;;19.90;99.90;;;;;;5052969;28;19916;-61
2022/06/24 05:09:08;;;;;;;;;;;19.90;99.90;;;;;;5056586;28;19913;-60
2022/06/24 05:11:34;;;;;;;;;;;19.90;99.90;;;;;;5049795;28;20385;-61
2022/06/24 05:13:59;;;;;;;;;;;19.90;99.90;;;;;;5051310;28;19931;-61
2022/06/24 05:16:25;;;;;;;;;;;20.00;99.90;;;;;;5054084;28;19913;-60
2022/06/24 05:18:50;;;;;;;;;;;20.00;99.90;;;;;;5051113;28;20394;-60
2022/06/24 05:21:16;;;;;;;;;;;20.00;99.90;;;;;;5051447;28;20017;-61
2022/06/24 05:23:41;;;;;;;;;;;20.10;99.90;;;;;;5052345;28;19908;-60
2022/06/24 05:26:07;;;;;;;;;;;20.10;99.90;;;;;;5050980;28;19920;-61
2022/06/24 05:28:36;;;;;;;;;;;20.20;99.90;;;;;;5030297;28;20601;-61
2022/06/24 05:31:02;;;;;;;;;;;20.20;99.90;;;;;;5049951;28;19913;-62
2022/06/24 05:33:27;;;;;;;;;;;20.30;99.90;;;;;;5053633;28;19924;-61
2022/06/24 05:35:54;;;;;;;;;;;20.30;99.90;;;;;;5049845;28;20015;-60
2022/06/24 05:38:21;;;;;;;;;;;20.30;99.90;;;;;;5053033;28;19925;-62
2022/06/24 05:40:51;;;;;;;;;;;20.30;99.90;;;;;;5051969;28;19917;-61
2022/06/24 05:43:20;;;;;;;;;;;20.30;99.90;;;;;;5050628;28;19913;-61
2022/06/24 05:45:46;;;;;;;;;;;20.40;99.90;;;;;;5049414;28;19917;-62
2022/06/24 05:48:12;;;;;;;;;;;20.40;99.90;;;;;;5051876;28;19913;-61
2022/06/24 05:50:38;;;;;;;;;;;20.40;99.90;;;;;;5055660;28;19916;-62
2022/06/24 05:55:49;;;;;;;;;;;20.40;99.90;;;;;;5048948;28;19919;-61
2022/06/24 05:58:14;;;;;;;;;;;20.40;99.90;;;;;;5053983;28;19916;-59
2022/06/24 06:00:40;;;;;;;;;;;20.40;99.90;;;;;;5051284;28;19913;-60
2022/06/24 06:03:05;;;;;;;;;;;20.40;99.90;;;;;;5050573;28;19951;-61
2022/06/24 06:05:31;;;;;;;;;;;20.40;99.90;;;;;;5053925;28;20001;-62
2022/06/24 06:07:56;;;;;;;;;;;20.40;99.90;;;;;;5050342;28;20312;-61
2022/06/24 06:10:22;;;;;;;;;;;20.50;99.90;;;;;;5059122;28;19925;-61
2022/06/24 06:12:47;;;;;;;;;;;20.50;99.90;;;;;;5054691;28;19943;-62
2022/06/24 06:15:13;;;;;;;;;;;20.50;99.90;;;;;;5059670;28;19908;-59
2022/06/24 06:17:38;;;;;;;;;;;20.50;99.90;;;;;;5052780;28;20302;-61
2022/06/24 06:20:04;;;;;;;;;;;20.50;99.90;;;;;;5056201;28;19991;-67
2022/06/24 06:22:29;;;;;;;;;;;20.50;99.90;;;;;;5055000;28;19920;-66
2022/06/24 06:24:55;;;;;;;;;;;20.40;99.90;;;;;;5054381;28;19964;-67
2022/06/24 06:27:21;;;;;;;;;;;20.40;99.90;;;;;;5055759;28;19909;-66
2022/06/24 06:29:47;;;;;;;;;;;20.40;99.90;;;;;;5052555;28;19939;-65
2022/06/24 06:32:12;;;;;;;;;;;20.40;99.90;;;;;;5052242;28;19934;-65
2022/06/24 06:34:38;;;;;;;;;;;20.40;99.90;;;;;;5052145;28;20461;-67
2022/06/24 06:37:03;;;;;;;;;;;20.40;99.90;;;;;;5052150;28;20402;-66
2022/06/24 06:39:29;;;;;;;;;;;20.40;99.90;;;;;;5053546;28;19912;-66
2022/06/24 06:41:54;;;;;;;;;;;20.50;99.90;;;;;;5058150;28;19909;-67
2022/06/24 06:44:20;;;;;;;;;;;20.50;99.90;;;;;;5054504;28;19916;-65
2022/06/24 06:46:45;;;;;;;;;;;20.50;99.90;;;;;;5054706;28;19940;-67
2022/06/24 06:49:11;;;;;;;;;;;20.50;99.90;;;;;;5052299;28;19952;-65
2022/06/24 06:51:37;;;;;;;;;;;20.50;99.90;;;;;;5056617;28;19913;-66
2022/06/24 06:54:03;;;;;;;;;;;20.60;99.90;;;;;;5059213;28;19916;-66
2022/06/24 06:56:29;;;;;;;;;;;20.60;99.90;;;;;;5055620;28;19912;-64
2022/06/24 06:58:54;;;;;;;;;;;20.60;99.90;;;;;;5054258;28;20297;-65
2022/06/24 07:01:20;;;;;;;;;;;20.60;99.90;;;;;;5035857;28;19992;-63
2022/06/24 07:03:45;;;;;;;;;;;20.70;99.90;;;;;;5051974;28;19932;-65
2022/06/24 07:06:11;;;;;;;;;;;20.70;99.90;;;;;;5054311;28;19913;-65
2022/06/24 07:08:36;;;;;;;;;;;20.70;99.90;;;;;;5051942;28;19917;-65
2022/06/24 07:11:05;;;;;;;;;;;20.70;99.90;;;;;;5053462;28;20377;-66
2022/06/24 07:13:31;;;;;;;;;;;20.80;99.90;;;;;;5051776;28;19935;-65
2022/06/24 07:15:56;;;;;;;;;;;20.80;99.90;;;;;;5052129;28;19935;-61
2022/06/24 07:18:22;;;;;;;;;;;20.90;99.90;;;;;;5055915;28;20353;-61
2022/06/24 07:20:48;;;;;;;;;;;20.90;99.90;;;;;;5052117;28;20578;-60
2022/06/24 07:23:13;;;;;;;;;;;21.00;99.90;;;;;;5053858;28;19915;-62
2022/06/24 07:25:39;;;;;;;;;;;21.00;99.90;;;;;;5014854;28;19913;-63
2022/06/24 07:28:05;;;;;;;;;;;20.90;99.90;;;;;;5057513;28;19909;-62
2022/06/24 07:30:30;;;;;;;;;;;21.00;99.90;;;;;;5055044;28;20405;-61
2022/06/24 07:32:56;;;;;;;;;;;21.00;99.90;;;;;;5038207;28;19924;-62
2022/06/24 07:35:22;;;;;;;;;;;21.10;99.90;;;;;;5051253;28;19955;-62
2022/06/24 07:37:48;;;;;;;;;;;21.00;99.90;;;;;;5053104;28;20524;-62
2022/06/24 07:40:15;;;;;;;;;;;21.10;99.90;;;;;;5054574;28;19920;-62
2022/06/24 07:42:41;;;;;;;;;;;21.00;99.90;;;;;;5053858;28;19913;-62
2022/06/24 07:45:07;;;;;;;;;;;21.10;99.90;;;;;;5057933;28;19909;-62
2022/06/24 07:47:34;;;;;;;;;;;21.00;99.90;;;;;;5053388;28;19958;-62
2022/06/24 07:50:01;;;;;;;;;;;21.10;99.90;;;;;;5051265;28;19948;-62
2022/06/24 07:52:26;;;;;;;;;;;21.10;99.90;;;;;;5055785;28;20374;-62
2022/06/24 07:56:56;;;;;;;;;;;21.20;99.90;;;;;;5035229;28;19919;-63
2022/06/24 07:57:37;;;;;;;;;;;21.30;99.90;;;;;;5052499;28;19923;-62
2022/06/24 08:00:03;;;;;;;;;;;21.30;99.90;;;;;;5054661;28;20007;-63
2022/06/24 08:02:28;;;;;;;;;;;21.40;99.90;;;;;;5055827;28;20422;-63
2022/06/24 08:04:54;;;;;;;;;;;21.50;99.90;;;;;;5056083;28;19962;-63
2022/06/24 08:07:19;;;;;;;;;;;21.60;99.90;;;;;;5051032;28;19917;-61
2022/06/24 08:09:45;;;;;;;;;;;21.70;99.90;;;;;;5055877;28;20286;-61
2022/06/24 08:12:10;;;;;;;;;;;21.70;99.90;;;;;;5054532;28;19912;-63
2022/06/24 08:14:36;;;;;;;;;;;21.70;99.90;;;;;;5053302;28;19920;-61
2022/06/24 08:17:01;;;;;;;;;;;21.70;99.90;;;;;;5053335;28;20007;-62
2022/06/24 08:19:27;;;;;;;;;;;21.80;99.90;;;;;;5052931;28;19921;-61
2022/06/24 08:21:52;;;;;;;;;;;21.90;99.90;;;;;;5050592;28;19912;-63
2022/06/24 08:24:18;;;;;;;;;;;22.00;99.90;;;;;;5054576;28;19909;-63
2022/06/24 08:26:43;;;;;;;;;;;21.90;99.90;;;;;;5055853;28;20736;-62
2022/06/24 08:29:10;;;;;;;;;;;21.90;99.90;;;;;;5052262;28;19916;-62
2022/06/24 08:31:36;;;;;;;;;;;21.90;99.90;;;;;;5052261;28;19912;-62
2022/06/24 08:34:02;;;;;;;;;;;22.00;99.90;;;;;;5052974;28;19943;-64
2022/06/24 08:36:27;;;;;;;;;;;22.00;99.90;;;;;;5054256;28;20385;-64
2022/06/24 08:38:53;;;;;;;;;;;22.10;99.90;;;;;;5051955;28;19916;-62
2022/06/24 08:41:23;;;;;;;;;;;22.20;99.90;;;;;;5052902;28;19912;-62
2022/06/24 08:43:50;;;;;;;;;;;22.20;99.90;;;;;;5051857;28;19924;-63
2022/06/24 08:46:15;;;;;;;;;;;22.40;99.90;;;;;;5057485;28;19913;-61
2022/06/24 08:48:41;;;;;;;;;;;22.40;99.90;;;;;;5051120;28;20383;-62
2022/06/24 08:51:07;;;;;;;;;;;22.40;99.90;;;;;;5054116;28;19928;-62
2022/06/24 08:53:33;;;;;;;;;;;22.40;99.90;;;;;;5050753;28;19931;-62
2022/06/24 08:55:59;;;;;;;;;;;22.40;99.90;;;;;;5052358;28;19912;-62
2022/06/24 08:58:24;;;;;;;;;;;22.50;99.70;;;;;;5052405;28;20368;-62
2022/06/24 09:00:50;;;;;;;;;;;22.50;99.90;;;;;;5051446;28;20272;-62
2022/06/24 09:03:15;;;;;;;;;;;22.60;99.90;;;;;;5056809;28;19921;-61
2022/06/24 09:05:41;;;;;;;;;;;22.70;99.60;;;;;;5033783;28;20371;-61
2022/06/24 09:08:10;;;;;;;;;;;22.60;99.50;;;;;;5050377;28;19962;-62
2022/06/24 09:10:40;;;;;;;;;;;22.70;99.30;;;;;;5033171;28;19912;-61
2022/06/24 09:13:06;;;;;;;;;;;22.70;98.80;;;;;;5052185;28;19958;-62
2022/06/24 09:15:32;;;;;;;;;;;22.70;98.90;;;;;;5051160;28;19909;-61
2022/06/24 09:17:59;;;;;;;;;;;22.70;98.70;;;;;;5053017;28;19955;-63
2022/06/24 09:20:28;;;;;;;;;;;22.70;98.90;;;;;;5052325;28;20345;-63
2022/06/24 09:23:07;;;;;;;;;;;22.80;98.80;;;;;;5054617;28;19913;-63
2022/06/24 09:25:46;;;;;;;;;;;22.70;98.10;;;;;;5050085;28;19912;-63
2022/06/24 09:28:19;;;;;;;;;;;22.60;98.20;;;;;;5053561;28;19912;-62
2022/06/24 09:30:45;;;;;;;;;;;22.60;98.30;;;;;;5045655;28;19923;-62
2022/06/24 09:33:14;;;;;;;;;;;22.50;97.90;;;;;;5054115;28;19921;-61
2022/06/24 09:35:39;;;;;;;;;;;22.40;97.50;;;;;;5051707;28;19956;-61
2022/06/24 09:38:05;;;;;;;;;;;22.40;98.00;;;;;;5051528;28;19948;-62
2022/06/24 09:40:31;;;;;;;;;;;22.40;97.80;;;;;;5052132;28;20469;-63
2022/06/24 09:43:01;;;;;;;;;;;22.40;97.50;;;;;;5050464;28;19912;-62
2022/06/24 09:45:42;;;;;;;;;;;22.40;97.70;;;;;;5056614;28;19917;-62
2022/06/24 09:48:07;;;;;;;;;;;22.40;97.60;;;;;;5056881;28;19966;-63
2022/06/24 09:50:33;;;;;;;;;;;22.40;97.40;;;;;;5057472;28;20430;-63
2022/06/24 09:53:00;;;;;;;;;;;22.40;97.70;;;;;;5055889;28;19927;-62
2022/06/24 09:55:26;;;;;;;;;;;22.40;97.30;;;;;;5054984;28;19928;-63
2022/06/24 09:57:52;;;;;;;;;;;22.50;97.30;;;;;;5054048;28;19978;-61
2022/06/24 10:03:02;;;;;;;;;;;22.70;96.70;;;;;;5059317;28;19927;-61
2022/06/24 10:05:31;;;;;;;;;;;22.80;96.10;;;;;;5055187;28;19917;-61
2022/06/24 10:07:57;;;;;;;;;;;22.80;96.50;;;;;;5053442;28;19920;-60
2022/06/24 10:10:23;;;;;;;;;;;22.80;95.60;;;;;;5056935;28;19924;-62
2022/06/24 10:12:50;;;;;;;;;;;22.80;95.80;;;;;;5054610;28;19921;-63
2022/06/24 10:15:16;;;;;;;;;;;22.80;96.10;;;;;;5055410;28;19913;-63
2022/06/24 10:17:46;;;;;;;;;;;22.90;95.60;;;;;;5035678;28;19913;-62
2022/06/24 10:20:12;;;;;;;;;;;22.90;96.20;;;;;;5056104;28;19978;-62
2022/06/24 10:22:41;;;;;;;;;;;22.90;96.10;;;;;;5060257;28;19912;-62
2022/06/24 10:25:07;;;;;;;;;;;23.00;95.80;;;;;;5052815;28;19916;-62
2022/06/24 10:27:51;;;;;;;;;;;23.00;95.40;;;;;;5056788;28;19912;-62
2022/06/24 10:30:35;;;;;;;;;;;22.90;95.40;;;;;;5054779;28;20450;-62
2022/06/24 10:33:10;;;;;;;;;;;23.00;95.30;;;;;;5032559;28;19928;-60
2022/06/24 10:35:55;;;;;;;;;;;23.00;95.30;;;;;;5051937;28;19909;-61
2022/06/24 10:38:22;;;;;;;;;;;23.10;95.70;;;;;;5052844;28;20516;-62
2022/06/24 10:40:48;;;;;;;;;;;23.20;96.00;;;;;;5052378;28;19909;-62
2022/06/24 10:43:13;;;;;;;;;;;23.30;95.70;;;;;;5053145;28;19959;-68
2022/06/24 10:45:39;;;;;;;;;;;23.40;95.70;;;;;;5055754;28;19913;-70
2022/06/24 10:48:05;;;;;;;;;;;23.40;95.50;;;;;;5043979;28;19921;-69
2022/06/24 10:50:30;;;;;;;;;;;23.50;95.30;;;;;;5048019;28;19932;-69
2022/06/24 10:52:59;;;;;;;;;;;23.50;95.10;;;;;;5050340;28;20003;-69
2022/06/24 10:57:54;;;;;;;;;;;23.60;94.90;;;;;;5050206;28;19913;-68
2022/06/24 11:00:21;;;;;;;;;;;23.70;95.10;;;;;;5051628;28;20382;-66
2022/06/24 11:02:49;;;;;;;;;;;23.80;94.80;;;;;;5050417;28;19925;-67
2022/06/24 11:05:16;;;;;;;;;;;23.80;94.70;;;;;;5048465;28;19913;-69
2022/06/24 11:07:45;;;;;;;;;;;23.90;94.50;;;;;;5049438;28;19952;-68
2022/06/24 11:10:23;;;;;;;;;;;24.00;94.20;;;;;;5049928;28;19917;-64
2022/06/24 11:12:49;;;;;;;;;;;24.00;94.40;;;;;;5032926;28;20602;-67
2022/06/24 11:15:15;;;;;;;;;;;24.10;93.60;;;;;;5051582;28;19947;-67
2022/06/24 11:17:44;;;;;;;;;;;24.10;93.80;;;;;;5049890;28;20379;-68
2022/06/24 11:20:12;;;;;;;;;;;24.20;93.50;;;;;;5049835;28;19963;-67
2022/06/24 11:22:44;;;;;;;;;;;24.20;93.00;;;;;;5053781;28;20255;-68
2022/06/24 11:25:13;;;;;;;;;;;24.20;92.90;;;;;;5047403;28;19916;-67
2022/06/24 11:27:39;;;;;;;;;;;24.20;92.80;;;;;;5050497;28;19921;-68
2022/06/24 11:30:05;;;;;;;;;;;24.20;93.00;;;;;;5049549;28;19920;-67
2022/06/24 11:32:53;;;;;;;;;;;24.30;93.60;;;;;;5049640;28;19920;-67
2022/06/24 11:35:19;;;;;;;;;;;24.50;93.70;;;;;;5048267;28;19917;-68
2022/06/24 11:37:45;;;;;;;;;;;24.60;93.00;;;;;;5048964;28;19928;-68
2022/06/24 11:40:18;;;;;;;;;;;24.60;92.70;;;;;;5049585;28;19934;-69
2022/06/24 11:42:43;;;;;;;;;;;24.70;92.90;;;;;;5049670;28;19936;-68
2022/06/24 11:45:09;;;;;;;;;;;24.70;92.40;;;;;;5049708;28;20379;-67
2022/06/24 11:47:34;;;;;;;;;;;24.80;92.90;;;;;;5048874;28;19924;-67
2022/06/24 11:50:00;;;;;;;;;;;24.90;92.20;;;;;;5051503;28;19959;-67
2022/06/24 11:52:25;;;;;;;;;;;24.90;91.90;;;;;;5050231;28;19913;-68
2022/06/24 11:54:51;;;;;;;;;;;24.90;92.20;;;;;;5026295;28;20397;-68
2022/06/24 11:57:16;;;;;;;;;;;25.00;92.00;;;;;;5049256;28;19919;-67
2022/06/24 11:59:42;;;;;;;;;;;25.00;91.80;;;;;;5047664;28;19919;-67
2022/06/24 12:02:08;;;;;;;;;;;24.90;90.80;;;;;;5048326;28;19923;-69
2022/06/24 12:04:34;;;;;;;;;;;24.80;91.50;;;;;;5050067;28;20011;-68
2022/06/24 12:07:02;;;;;;;;;;;24.80;91.40;;;;;;5051241;28;20004;-66
2022/06/24 12:09:28;;;;;;;;;;;24.80;91.40;;;;;;5050983;28;19917;-61
2022/06/24 12:11:53;;;;;;;;;;;24.90;91.20;;;;;;5050174;28;19920;-60
2022/06/24 12:14:20;;;;;;;;;;;24.90;90.50;;;;;;5048641;28;19935;-61
2022/06/24 12:17:03;;;;;;;;;;;25.00;90.40;;;;;;5050159;28;19921;-62
2022/06/24 12:19:30;;;;;;;;;;;25.00;90.40;;;;;;5048799;28;19921;-62
2022/06/24 12:22:12;;;;;;;;;;;25.00;90.50;;;;;;5049050;28;20415;-62
2022/06/24 12:24:38;;;;;;;;;;;25.00;90.50;;;;;;5048534;28;19924;-60
2022/06/24 12:27:04;;;;;;;;;;;25.10;90.40;;;;;;5050614;28;20007;-60
2022/06/24 12:29:32;;;;;;;;;;;25.20;90.40;;;;;;5047508;28;20463;-63
2022/06/24 12:31:59;;;;;;;;;;;25.20;90.30;;;;;;5049037;28;19917;-62
2022/06/24 12:34:25;;;;;;;;;;;25.20;90.00;;;;;;5049743;28;19921;-62
2022/06/24 12:36:54;;;;;;;;;;;25.10;88.90;;;;;;5046926;28;19913;-61
2022/06/24 12:39:26;;;;;;;;;;;25.20;90.00;;;;;;5048846;28;20011;-61
2022/06/24 12:41:51;;;;;;;;;;;25.20;89.40;;;;;;5049697;28;19913;-60
2022/06/24 12:44:17;;;;;;;;;;;25.30;88.10;;;;;;5048963;28;19913;-60
2022/06/24 12:52:28;;;;;;;;;;;25.20;88.00;;;;;;5049571;28;19920;-62
2022/06/24 12:54:53;;;;;;;;;;;25.10;87.50;;;;;;5047272;28;19929;-60
2022/06/24 12:57:19;;;;;;;;;;;25.10;86.00;;;;;;5049319;28;20375;-60
2022/06/24 12:59:44;;;;;;;;;;;25.00;85.00;;;;;;5051394;28;19959;-61
2022/06/24 13:02:10;;;;;;;;;;;24.90;85.10;;;;;;5030039;28;19943;-65
2022/06/24 13:04:36;;;;;;;;;;;24.80;85.80;;;;;;5049119;28;20027;-66
2022/06/24 13:07:04;;;;;;;;;;;24.70;85.40;;;;;;5047736;28;20222;-65
2022/06/24 13:09:29;;;;;;;;;;;24.80;86.30;;;;;;5051251;28;19927;-65
2022/06/24 13:11:55;;;;;;;;;;;24.80;85.70;;;;;;5032243;28;19921;-65
2022/06/24 13:14:20;;;;;;;;;;;24.80;86.60;;;;;;5031544;28;19928;-65
2022/06/24 13:16:46;;;;;;;;;;;24.90;86.50;;;;;;5048253;28;19917;-64
2022/06/24 13:19:11;;;;;;;;;;;24.90;86.90;;;;;;5049962;28;20363;-64
2022/06/24 13:21:37;;;;;;;;;;;24.90;86.40;;;;;;5048178;28;19923;-64
2022/06/24 13:24:03;;;;;;;;;;;24.90;86.10;;;;;;5049997;28;19975;-63
2022/06/24 13:26:28;;;;;;;;;;;24.80;85.70;;;;;;5047700;28;20019;-65
2022/06/24 13:28:54;;;;;;;;;;;24.80;86.30;;;;;;5047910;28;20383;-64
2022/06/24 13:31:19;;;;;;;;;;;24.80;85.80;;;;;;5047334;28;20393;-66
2022/06/24 13:33:45;;;;;;;;;;;24.70;85.50;;;;;;5048121;28;19963;-64
2022/06/24 13:36:10;;;;;;;;;;;24.70;85.80;;;;;;5047129;28;19947;-65
2022/06/24 13:38:36;;;;;;;;;;;24.70;85.90;;;;;;5047101;28;19956;-63
2022/06/24 13:41:01;;;;;;;;;;;24.60;86.20;;;;;;5029934;28;19919;-64
2022/06/24 13:43:27;;;;;;;;;;;24.70;86.50;;;;;;5047678;28;19923;-67
2022/06/24 13:45:52;;;;;;;;;;;24.70;87.00;;;;;;5050043;28;19948;-65
2022/06/24 13:48:18;;;;;;;;;;;24.70;86.70;;;;;;5050088;28;19983;-65
2022/06/24 13:50:43;;;;;;;;;;;24.80;86.70;;;;;;5051700;28;19955;-67
2022/06/24 13:53:09;;;;;;;;;;;24.70;85.10;;;;;;5048362;28;19932;-65
2022/06/24 13:55:34;;;;;;;;;;;24.70;85.00;;;;;;5047803;28;20457;-66
2022/06/24 13:58:01;;;;;;;;;;;24.70;85.10;;;;;;5047272;28;19912;-64
2022/06/24 14:00:26;;;;;;;;;;;24.70;84.30;;;;;;5047683;28;20371;-65
2022/06/24 14:02:52;;;;;;;;;;;24.70;84.50;;;;;;5047959;28;19931;-66
2022/06/24 14:05:17;;;;;;;;;;;24.70;83.70;;;;;;5046801;28;19916;-67
2022/06/24 14:07:43;;;;;;;;;;;24.60;82.40;;;;;;5047188;28;19920;-65
2022/06/24 14:10:08;;;;;;;;;;;24.60;82.50;;;;;;5047132;28;19913;-65
2022/06/24 14:12:34;;;;;;;;;;;24.50;82.80;;;;;;5046756;28;20371;-66
2022/06/24 14:14:59;;;;;;;;;;;24.50;83.50;;;;;;5048702;28;20977;-62
2022/06/24 14:17:25;;;;;;;;;;;24.50;83.50;;;;;;5046774;28;20303;-65
2022/06/24 14:19:50;;;;;;;;;;;24.50;82.60;;;;;;5044690;28;19927;-66
2022/06/24 14:22:15;;;;;;;;;;;24.50;84.00;;;;;;5048516;28;20337;-65
2022/06/24 14:24:41;;;;;;;;;;;24.60;84.30;;;;;;5047781;28;19963;-65
2022/06/24 14:27:08;;;;;;;;;;;24.70;83.40;;;;;;5048619;28;20332;-67
2022/06/24 14:29:34;;;;;;;;;;;24.80;83.50;;;;;;5048287;28;19975;-65